createdAt,value
2023-01-11T00:07:33.170Z,10.68
2023-01-11T00:22:35.108Z,10.95
2023-01-11T00:37:37.083Z,9.27
2023-01-11T00:52:39.064Z,8.10
2023-01-11T01:07:42.042Z,8.55
2023-01-11T01:22:44.011Z,6.55
2023-01-11T01:37:45.989Z,6.38
2023-01-11T01:52:51.774Z,7.22
2023-01-11T02:07:56.411Z,8.00
2023-01-11T02:23:01.300Z,8.38
2023-01-11T02:38:28.233Z,7.20
2023-01-11T02:53:32.972Z,6.50
2023-01-11T03:09:08.657Z,7.28
2023-01-11T03:24:16.360Z,8.77
2023-01-11T03:39:30.060Z,8.57
2023-01-11T03:54:33.814Z,9.48
2023-01-11T04:09:38.142Z,8.82
2023-01-11T04:24:40.213Z,12.05
2023-01-11T04:39:42.143Z,13.18
2023-01-11T04:54:44.568Z,9.48
2023-01-11T05:09:46.506Z,10.57
2023-01-11T05:24:48.452Z,6.57
2023-01-11T05:39:50.572Z,5.28
2023-01-11T05:54:52.629Z,5.85
2023-01-11T06:09:54.634Z,4.60
2023-01-11T06:24:57.097Z,5.40
2023-01-11T06:39:59.102Z,5.18
2023-01-11T06:55:01.265Z,4.82
2023-01-11T07:10:03.892Z,3.90
2023-01-11T07:25:06.845Z,3.70
2023-01-11T07:40:09.557Z,4.20
2023-01-11T07:55:11.526Z,3.42
2023-01-11T08:10:13.743Z,3.88
2023-01-11T08:25:16.242Z,4.50
2023-01-11T08:40:18.301Z,3.78
2023-01-11T08:55:20.357Z,3.95
2023-01-11T09:10:22.763Z,3.90
2023-01-11T09:25:24.876Z,3.85
2023-01-11T09:40:46.257Z,4.28
2023-01-11T09:55:52.288Z,5.13
2023-01-11T10:26:47.544Z,6.35
2023-01-11T10:42:03.993Z,6.50
2023-01-11T10:57:35.947Z,4.78
2023-01-11T11:12:44.211Z,2.40
2023-01-11T11:27:58.424Z,2.83
2023-01-11T11:43:22.001Z,3.67
2023-01-11T11:58:26.147Z,3.65
2023-01-11T12:13:34.763Z,3.22
2023-01-11T12:28:56.792Z,3.20
2023-01-11T12:44:05.141Z,3.40
2023-01-11T12:59:37.410Z,2.97
2023-01-11T13:14:51.645Z,2.80
2023-01-11T13:30:00.067Z,3.83
2023-01-11T13:45:10.556Z,3.80
2023-01-11T14:00:19.208Z,3.80
2023-01-11T14:15:38.156Z,3.60
2023-01-11T14:31:20.456Z,5.00
2023-01-11T14:46:40.265Z,5.05
2023-01-11T15:02:04.256Z,4.78
2023-01-11T15:17:25.030Z,5.15
2023-01-11T15:32:30.745Z,4.95
2023-01-11T15:48:00.306Z,6.07
2023-01-11T16:03:36.826Z,5.18
2023-01-11T16:18:51.626Z,6.32
2023-01-11T16:33:54.209Z,5.28
2023-01-11T16:49:10.160Z,5.38
2023-01-11T17:04:36.558Z,4.97
2023-01-11T17:19:46.696Z,5.30
2023-01-11T17:34:50.877Z,5.20
2023-01-11T17:49:54.509Z,7.78
2023-01-11T18:05:00.092Z,6.40
2023-01-11T18:20:25.082Z,7.32
2023-01-11T18:35:27.120Z,7.15
2023-01-11T18:50:29.321Z,7.63
2023-01-11T19:05:31.772Z,7.20
2023-01-11T19:20:33.727Z,7.18
2023-01-11T19:35:41.084Z,7.65
2023-01-11T19:50:43.265Z,8.43
2023-01-11T20:05:45.178Z,10.48
2023-01-11T20:20:55.679Z,10.93
2023-01-11T20:35:57.836Z,8.90
2023-01-11T20:51:03.565Z,8.57
2023-01-11T21:06:07.851Z,8.10
2023-01-11T21:21:18.682Z,9.05
2023-01-11T21:36:23.651Z,8.23
2023-01-11T21:51:29.850Z,7.25
2023-01-11T22:06:34.489Z,7.85
2023-01-11T22:21:37.854Z,7.32
2023-01-11T22:36:39.885Z,7.32
2023-01-11T22:51:42.923Z,8.23
2023-01-11T23:06:45.151Z,8.45
2023-01-11T23:21:47.662Z,8.80
2023-01-11T23:36:49.583Z,9.95
2023-01-11T23:51:51.820Z,10.38
